createdAt,value
2019-04-29T00:00:44.242Z,101860.46
2019-04-29T00:03:10.088Z,101869.14
2019-04-29T00:05:35.673Z,101868.17
2019-04-29T00:08:01.216Z,101869.62
2019-04-29T00:10:27.196Z,101871.84
2019-04-29T00:12:52.658Z,101873.00
2019-04-29T00:15:38.911Z,101880.19
2019-04-29T00:18:08.594Z,101882.62
2019-04-29T00:20:48.714Z,101881.78
2019-04-29T00:23:14.559Z,101882.97
2019-04-29T00:25:40.015Z,101884.34
2019-04-29T00:28:05.575Z,101891.14
2019-04-29T00:30:31.048Z,101892.34
2019-04-29T00:32:56.641Z,101893.81
2019-04-29T00:35:22.047Z,101892.44
2019-04-29T00:38:00.768Z,101895.80
2019-04-29T00:40:50.964Z,101897.84
2019-04-29T00:43:30.122Z,101892.36
2019-04-29T00:45:55.633Z,101898.48
2019-04-29T00:48:21.097Z,101896.42
2019-04-29T00:50:46.585Z,101902.51
2019-04-29T00:53:12.145Z,101905.36
2019-04-29T00:55:37.603Z,101898.45
2019-04-29T00:58:03.108Z,101896.53
2019-04-29T01:00:36.408Z,101906.61
2019-04-29T01:03:02.209Z,101899.17
2019-04-29T01:05:27.685Z,101907.23
2019-04-29T01:07:53.348Z,101901.25
2019-04-29T01:10:18.989Z,101900.63
2019-04-29T01:12:44.679Z,101906.61
2019-04-29T01:15:10.258Z,101902.56
2019-04-29T01:17:35.889Z,101900.05
2019-04-29T01:20:01.464Z,101904.30
2019-04-29T01:22:27.126Z,101903.63
2019-04-29T01:24:52.702Z,101900.34
2019-04-29T01:27:25.842Z,101904.17
2019-04-29T01:29:51.855Z,101898.91
2019-04-29T01:32:17.352Z,101903.53
2019-04-29T01:34:49.719Z,101892.00
2019-04-29T01:37:15.451Z,101902.66
2019-04-29T01:39:46.761Z,101905.58
2019-04-29T01:42:22.662Z,101909.30
2019-04-29T01:44:48.133Z,101902.41
2019-04-29T01:47:13.547Z,101907.14
2019-04-29T01:49:39.469Z,101912.25
2019-04-29T01:52:04.948Z,101913.23
2019-04-29T01:54:30.411Z,101917.75
2019-04-29T01:56:55.883Z,101917.87
2019-04-29T01:59:21.467Z,101921.97
2019-04-29T02:01:46.927Z,101917.87
2019-04-29T02:04:12.397Z,101916.97
2019-04-29T02:06:37.876Z,101923.41
2019-04-29T02:09:05.130Z,101921.69
2019-04-29T02:11:30.788Z,101923.13
2019-04-29T02:13:56.531Z,101925.90
2019-04-29T02:16:21.949Z,101920.73
2019-04-29T02:18:47.396Z,101922.36
2019-04-29T02:21:13.140Z,101921.30
2019-04-29T02:24:03.483Z,101921.36
2019-04-29T02:26:28.951Z,101921.41
2019-04-29T02:28:54.419Z,101917.56
2019-04-29T02:31:37.371Z,101923.73
2019-04-29T02:34:02.815Z,101915.41
2019-04-29T02:36:30.040Z,101921.63
2019-04-29T02:39:19.973Z,101917.44
2019-04-29T02:41:53.382Z,101919.58
2019-04-29T02:44:18.892Z,101916.67
2019-04-29T02:46:44.333Z,101922.80
2019-04-29T02:49:10.109Z,101929.03
2019-04-29T02:51:53.193Z,101936.34
2019-04-29T02:54:18.665Z,101928.94
2019-04-29T02:56:46.614Z,101922.77
2019-04-29T02:59:13.021Z,101921.36
2019-04-29T03:01:51.605Z,101928.72
2019-04-29T03:04:19.595Z,101931.41
2019-04-29T03:06:45.162Z,101932.52
2019-04-29T03:09:11.057Z,101932.48
2019-04-29T03:11:36.499Z,101935.59
2019-04-29T03:14:02.048Z,101934.97
2019-04-29T03:16:27.772Z,101939.53
2019-04-29T03:18:58.034Z,101944.69
2019-04-29T03:21:51.554Z,101937.61
2019-04-29T03:24:16.934Z,101934.83
2019-04-29T03:26:42.371Z,101931.33
2019-04-29T03:29:22.635Z,101931.00
2019-04-29T03:31:48.107Z,101930.78
2019-04-29T03:34:13.812Z,101930.06
2019-04-29T03:36:39.272Z,101933.71
2019-04-29T03:39:06.286Z,101939.49
2019-04-29T03:41:31.726Z,101943.80
2019-04-29T03:43:57.195Z,101943.86
2019-04-29T03:46:22.632Z,101949.42
2019-04-29T03:48:48.119Z,101938.23
2019-04-29T03:51:13.513Z,101945.26
2019-04-29T03:53:39.135Z,101949.22
2019-04-29T03:56:04.629Z,101946.35
2019-04-29T03:58:30.159Z,101951.47
2019-04-29T04:01:14.480Z,101953.36
2019-04-29T04:03:46.876Z,101958.60
2019-04-29T04:06:49.734Z,101953.11
2019-04-29T04:09:18.131Z,101962.98
2019-04-29T04:11:43.544Z,101964.31
2019-04-29T04:14:09.002Z,101969.66
2019-04-29T04:16:52.237Z,101970.73
2019-04-29T04:19:18.585Z,101968.97
2019-04-29T04:21:44.238Z,101967.83
2019-04-29T04:24:09.702Z,101967.23
2019-04-29T04:26:35.713Z,101967.76
2019-04-29T04:29:01.094Z,101969.80
2019-04-29T04:31:26.838Z,101968.33
2019-04-29T04:33:52.461Z,101973.11
2019-04-29T04:36:18.456Z,101969.83
2019-04-29T04:38:44.154Z,101969.61
2019-04-29T04:41:11.399Z,101973.75
2019-04-29T04:43:37.154Z,101979.58
2019-04-29T04:46:02.610Z,101979.52
2019-04-29T04:48:30.900Z,101977.67
2019-04-29T04:50:56.379Z,101981.08
2019-04-29T04:53:22.106Z,101985.56
2019-04-29T04:55:49.172Z,101984.45
2019-04-29T04:58:14.943Z,101987.28
2019-04-29T05:00:40.354Z,101985.23
2019-04-29T05:03:05.832Z,101988.80
2019-04-29T05:05:31.899Z,101981.22
2019-04-29T05:07:57.362Z,101987.27
2019-04-29T05:10:22.967Z,101987.09
2019-04-29T05:12:48.421Z,101994.88
2019-04-29T05:15:14.179Z,101995.31
2019-04-29T05:17:39.651Z,102001.55
2019-04-29T05:20:05.246Z,102001.62
2019-04-29T05:22:30.706Z,101999.58
2019-04-29T05:24:56.137Z,101995.30
2019-04-29T05:27:22.046Z,102004.31
2019-04-29T05:29:47.392Z,102002.87
2019-04-29T05:32:12.863Z,101999.08
2019-04-29T05:34:41.674Z,102004.78
2019-04-29T05:37:24.921Z,102012.05
2019-04-29T05:39:50.411Z,102008.52
2019-04-29T05:42:17.198Z,102017.55
2019-04-29T05:44:51.234Z,102021.74
2019-04-29T05:47:23.211Z,102020.34
2019-04-29T05:50:06.613Z,102021.13
2019-04-29T05:52:49.802Z,102031.66
2019-04-29T05:55:15.448Z,102030.72
2019-04-29T05:57:40.897Z,102034.30
2019-04-29T06:00:07.757Z,102041.97
2019-04-29T06:02:38.335Z,102038.23
2019-04-29T06:05:00.558Z,102037.27
2019-04-29T06:07:26.969Z,102042.52
2019-04-29T06:09:52.549Z,102035.02
2019-04-29T06:12:18.030Z,102040.88
2019-04-29T06:14:43.506Z,102037.45
2019-04-29T06:17:08.975Z,102039.72
2019-04-29T06:19:35.211Z,102039.77
2019-04-29T06:22:03.886Z,102045.83
2019-04-29T06:24:28.812Z,102043.08
2019-04-29T06:26:54.298Z,102041.16
2019-04-29T06:29:19.667Z,102049.97
2019-04-29T06:31:45.261Z,102050.47
2019-04-29T06:34:10.734Z,102051.15
2019-04-29T06:36:36.193Z,102051.45
2019-04-29T06:39:01.643Z,102054.19
2019-04-29T06:41:27.119Z,102058.98
2019-04-29T06:43:55.901Z,102061.69
2019-04-29T06:46:19.779Z,102055.80
2019-04-29T06:48:45.217Z,102056.22
2019-04-29T06:51:10.694Z,102054.47
2019-04-29T06:53:36.159Z,102059.23
2019-04-29T06:56:01.567Z,102063.68
2019-04-29T06:58:27.381Z,102063.81
2019-04-29T07:00:55.786Z,102072.59
2019-04-29T07:03:20.949Z,102070.73
2019-04-29T07:05:47.383Z,102070.13
2019-04-29T07:08:12.849Z,102070.90
2019-04-29T07:10:38.401Z,102073.87
2019-04-29T07:13:03.893Z,102070.91
2019-04-29T07:15:29.608Z,102072.59
2019-04-29T07:17:55.110Z,102070.14
2019-04-29T07:20:20.559Z,102073.18
2019-04-29T07:22:46.177Z,102066.26
2019-04-29T07:25:11.845Z,102072.71
2019-04-29T07:27:43.010Z,102072.59
2019-04-29T07:30:06.577Z,102074.30
2019-04-29T07:32:33.250Z,102078.48
2019-04-29T07:34:58.717Z,102076.84
2019-04-29T07:37:24.161Z,102077.81
2019-04-29T07:39:49.661Z,102083.14
2019-04-29T07:42:15.660Z,102079.02
2019-04-29T07:45:12.093Z,102077.45
2019-04-29T07:47:38.757Z,102089.64
2019-04-29T07:50:04.370Z,102085.14
2019-04-29T07:52:29.915Z,102085.17
2019-04-29T07:54:56.288Z,102084.53
2019-04-29T07:57:21.932Z,102081.83
2019-04-29T07:59:47.390Z,102074.88
2019-04-29T08:02:12.939Z,102079.89
2019-04-29T08:04:40.410Z,102079.87
2019-04-29T08:07:06.036Z,102085.78
2019-04-29T08:09:31.879Z,102089.27
2019-04-29T08:11:57.977Z,102088.14
2019-04-29T08:14:25.740Z,102081.86
2019-04-29T08:16:51.154Z,102088.93
2019-04-29T08:19:16.552Z,102083.76
2019-04-29T08:21:45.472Z,102082.78
2019-04-29T08:24:11.588Z,102080.10
2019-04-29T08:26:38.517Z,102080.45
2019-04-29T08:29:03.513Z,102079.16
2019-04-29T08:31:28.919Z,102074.36
2019-04-29T08:33:54.327Z,102070.55
2019-04-29T08:36:19.952Z,102073.96
2019-04-29T08:38:45.415Z,102077.48
2019-04-29T08:41:11.261Z,102080.80
2019-04-29T08:44:15.784Z,102072.31
2019-04-29T08:46:44.482Z,102070.29
2019-04-29T08:49:12.090Z,102078.66
2019-04-29T08:51:36.808Z,102073.13
2019-04-29T08:54:02.571Z,102075.73
2019-04-29T08:56:28.202Z,102067.18
2019-04-29T08:58:53.660Z,102070.06
2019-04-29T09:01:19.145Z,102073.66
2019-04-29T09:03:44.595Z,102079.17
2019-04-29T09:06:10.123Z,102078.80
2019-04-29T09:08:35.586Z,102071.20
2019-04-29T09:11:01.072Z,102072.11
2019-04-29T09:13:26.779Z,102070.27
2019-04-29T09:15:52.245Z,102073.20
2019-04-29T09:18:17.703Z,102078.06
2019-04-29T09:20:44.134Z,102073.66
2019-04-29T09:23:12.148Z,102068.38
2019-04-29T09:26:02.818Z,102062.12
2019-04-29T09:28:27.948Z,102062.52
2019-04-29T09:30:51.251Z,102056.30
2019-04-29T09:33:16.853Z,102061.01
2019-04-29T09:35:42.323Z,102060.00
2019-04-29T09:38:07.789Z,102053.75
2019-04-29T09:40:36.043Z,102051.84
2019-04-29T09:43:21.498Z,102048.77
2019-04-29T09:45:53.859Z,102043.33
2019-04-29T09:48:20.268Z,102037.98
2019-04-29T09:50:45.646Z,102043.51
2019-04-29T09:53:11.379Z,102036.80
2019-04-29T09:55:39.929Z,102037.31
2019-04-29T09:58:04.582Z,102046.29
2019-04-29T10:00:46.461Z,102034.59
2019-04-29T10:03:30.866Z,102030.91
2019-04-29T10:06:07.808Z,102038.84
2019-04-29T10:08:33.370Z,102030.32
2019-04-29T10:10:58.916Z,102026.13
2019-04-29T10:13:24.516Z,102022.22
2019-04-29T10:16:07.807Z,102031.59
2019-04-29T10:18:41.339Z,102021.72
2019-04-29T10:21:16.680Z,102018.48
2019-04-29T10:23:40.267Z,102015.50
2019-04-29T10:26:05.939Z,102017.95
2019-04-29T10:28:35.245Z,102016.74
2019-04-29T10:31:09.241Z,102012.75
2019-04-29T10:33:34.947Z,102011.47
2019-04-29T10:36:00.484Z,102022.23
2019-04-29T10:38:25.868Z,102018.95
2019-04-29T10:41:10.029Z,102012.78
2019-04-29T10:44:00.663Z,102010.41
2019-04-29T10:46:45.128Z,102008.02
2019-04-29T10:49:18.092Z,101999.44
2019-04-29T10:51:43.587Z,101989.24
2019-04-29T10:54:09.166Z,101997.67
2019-04-29T10:56:35.349Z,101996.47
2019-04-29T10:59:04.593Z,101997.61
2019-04-29T11:02:35.092Z,101997.61
2019-04-29T11:05:20.110Z,101986.77
2019-04-29T11:07:50.303Z,101990.52
2019-04-29T11:10:29.627Z,101983.98
2019-04-29T11:12:55.961Z,101989.09
2019-04-29T11:15:23.814Z,101989.67
2019-04-29T11:17:58.520Z,102000.20
2019-04-29T11:20:21.136Z,101994.67
2019-04-29T11:22:48.559Z,101986.70
2019-04-29T11:25:40.627Z,101975.53
2019-04-29T11:28:06.218Z,101986.45
2019-04-29T11:30:34.947Z,101984.41
2019-04-29T11:33:08.227Z,101981.44
2019-04-29T11:35:39.226Z,101973.34
2019-04-29T11:38:06.634Z,101977.56
2019-04-29T11:40:43.092Z,101978.35
2019-04-29T11:43:00.830Z,101972.38
2019-04-29T11:45:33.744Z,101968.44
2019-04-29T11:47:58.208Z,101973.16
2019-04-29T11:50:36.305Z,101963.92
2019-04-29T11:53:01.925Z,101974.31
2019-04-29T11:55:27.530Z,101966.81
2019-04-29T11:57:58.770Z,101962.99
2019-04-29T12:00:53.544Z,101953.72
2019-04-29T12:03:21.019Z,101958.52
2019-04-29T12:05:53.526Z,101952.17
2019-04-29T12:08:19.148Z,101957.16
2019-04-29T12:10:52.094Z,101953.31
2019-04-29T12:13:18.986Z,101956.14
2019-04-29T12:16:03.107Z,101946.63
2019-04-29T12:18:34.148Z,101948.91
2019-04-29T12:21:08.099Z,101959.75
2019-04-29T12:23:33.618Z,101947.39
2019-04-29T12:26:03.047Z,101950.28
2019-04-29T12:28:27.033Z,101944.31
2019-04-29T12:30:54.411Z,101940.46
2019-04-29T12:33:25.618Z,101936.84
2019-04-29T12:35:58.581Z,101935.08
2019-04-29T12:38:49.512Z,101927.45
2019-04-29T12:41:25.327Z,101931.37
2019-04-29T12:44:09.937Z,101923.16
2019-04-29T12:46:44.500Z,101925.30
2019-04-29T12:49:13.532Z,101922.41
2019-04-29T12:51:37.262Z,101927.10
2019-04-29T12:54:02.860Z,101917.55
2019-04-29T12:56:43.314Z,101918.16
2019-04-29T12:59:07.799Z,101911.45
2019-04-29T13:01:51.577Z,101916.66
2019-04-29T13:04:37.279Z,101906.99
2019-04-29T13:07:30.945Z,101904.54
2019-04-29T13:10:02.041Z,101901.88
2019-04-29T13:12:30.148Z,101898.37
2019-04-29T13:15:12.543Z,101896.33
2019-04-29T13:17:44.077Z,101903.57
2019-04-29T13:20:11.730Z,101896.26
2019-04-29T13:22:37.755Z,101886.09
2019-04-29T13:25:03.235Z,101885.59
2019-04-29T13:27:28.856Z,101881.23
2019-04-29T13:29:54.678Z,101872.70
2019-04-29T13:32:20.496Z,101872.07
2019-04-29T13:34:47.398Z,101874.23
2019-04-29T13:37:20.619Z,101863.03
2019-04-29T13:39:40.898Z,101859.88
2019-04-29T13:42:09.069Z,101867.13
2019-04-29T13:44:41.685Z,101863.87
2019-04-29T13:47:13.754Z,101857.64
2019-04-29T13:50:18.495Z,101850.49
2019-04-29T13:52:31.238Z,101849.30
2019-04-29T13:54:56.661Z,101851.83
2019-04-29T13:57:22.327Z,101847.77
2019-04-29T14:00:03.794Z,101845.44
2019-04-29T14:02:36.799Z,101837.41
2019-04-29T14:05:03.163Z,101841.26
2019-04-29T14:07:28.770Z,101836.44
2019-04-29T14:09:54.182Z,101834.70
2019-04-29T14:14:47.325Z,101843.78
2019-04-29T14:18:53.649Z,101837.30
2019-04-29T14:19:42.355Z,101834.24
2019-04-29T14:22:20.958Z,101828.20
2019-04-29T14:24:34.984Z,101827.86
2019-04-29T14:27:00.503Z,101826.37
2019-04-29T14:29:28.316Z,101825.07
2019-04-29T14:31:59.330Z,101820.95
2019-04-29T14:34:36.613Z,101829.68
2019-04-29T14:37:19.771Z,101822.22
2019-04-29T14:39:37.067Z,101823.48
2019-04-29T14:42:00.423Z,101823.48
2019-04-29T14:44:33.918Z,101827.88
2019-04-29T14:47:09.023Z,101830.74
2019-04-29T14:49:47.414Z,101820.88
2019-04-29T14:52:14.774Z,101823.25
2019-04-29T14:54:41.816Z,101826.58
2019-04-29T14:57:09.231Z,101822.93
2019-04-29T14:59:35.050Z,101822.74
2019-04-29T15:02:16.137Z,101822.20
2019-04-29T15:04:40.754Z,101824.89
2019-04-29T15:07:06.764Z,101821.53
2019-04-29T15:09:45.874Z,101830.31
2019-04-29T15:12:21.717Z,101820.77
2019-04-29T15:15:01.502Z,101830.44
2019-04-29T15:17:40.434Z,101816.73
2019-04-29T15:20:25.205Z,101822.29
2019-04-29T15:22:50.999Z,101820.08
2019-04-29T15:25:20.866Z,101821.87
2019-04-29T15:27:44.164Z,101822.30
2019-04-29T15:30:10.388Z,101822.92
2019-04-29T15:32:35.917Z,101818.33
2019-04-29T15:35:01.385Z,101818.75
2019-04-29T15:37:27.149Z,101813.06
2019-04-29T15:39:52.679Z,101815.42
2019-04-29T15:42:18.115Z,101819.81
2019-04-29T15:44:43.694Z,101813.61
2019-04-29T15:47:09.519Z,101811.58
2019-04-29T15:49:34.976Z,101807.70
2019-04-29T15:52:00.446Z,101815.95
2019-04-29T15:54:26.275Z,101827.81
2019-04-29T15:56:52.116Z,101822.91
2019-04-29T15:59:17.878Z,101819.09
2019-04-29T16:01:45.877Z,101814.52
2019-04-29T16:04:15.743Z,101822.58
2019-04-29T16:07:05.430Z,101812.83
2019-04-29T16:09:52.549Z,101811.11
2019-04-29T16:12:25.261Z,101805.25
2019-04-29T16:14:50.552Z,101812.97
2019-04-29T16:17:20.320Z,101818.84
2019-04-29T16:19:43.203Z,101824.16
2019-04-29T16:22:12.876Z,101816.67
2019-04-29T16:24:38.418Z,101814.02
2019-04-29T16:27:08.399Z,101815.14
2019-04-29T16:29:30.473Z,101816.58
2019-04-29T16:32:02.373Z,101823.06
2019-04-29T16:34:23.016Z,101814.27
2019-04-29T16:36:49.809Z,101813.91
2019-04-29T16:39:15.880Z,101816.55
2019-04-29T16:42:05.642Z,101819.70
2019-04-29T16:44:36.219Z,101823.06
2019-04-29T16:46:58.327Z,101809.27
2019-04-29T16:49:23.953Z,101812.67
2019-04-29T16:51:53.703Z,101812.36
2019-04-29T16:54:20.400Z,101808.89
2019-04-29T16:56:43.776Z,101814.69
2019-04-29T16:59:09.673Z,101810.86
2019-04-29T17:01:35.282Z,101810.63
2019-04-29T17:04:05.462Z,101807.19
2019-04-29T17:06:28.870Z,101813.28
2019-04-29T17:09:10.959Z,101816.86
2019-04-29T17:11:37.082Z,101815.30
2019-04-29T17:14:09.877Z,101816.81
2019-04-29T17:16:30.726Z,101805.28
2019-04-29T17:18:56.212Z,101818.59
2019-04-29T17:21:21.703Z,101817.23
2019-04-29T17:23:47.187Z,101813.81
2019-04-29T17:26:12.639Z,101818.73
2019-04-29T17:28:44.963Z,101816.97
2019-04-29T17:31:29.680Z,101823.59
2019-04-29T17:34:53.925Z,101818.19
2019-04-29T17:36:50.944Z,101820.27
2019-04-29T17:39:17.376Z,101818.60
2019-04-29T17:41:42.820Z,101826.80
2019-04-29T17:44:38.765Z,101822.47
2019-04-29T17:47:25.932Z,101821.14
2019-04-29T17:50:01.936Z,101816.09
2019-04-29T17:52:28.561Z,101818.10
2019-04-29T17:54:57.873Z,101814.92
2019-04-29T17:57:42.981Z,101814.74
2019-04-29T18:00:43.511Z,101816.05
2019-04-29T18:03:25.390Z,101819.06
2019-04-29T18:06:18.857Z,101828.00
2019-04-29T18:08:55.012Z,101810.76
2019-04-29T18:11:20.997Z,101822.65
2019-04-29T18:13:47.064Z,101830.84
2019-04-29T18:16:19.159Z,101824.86
2019-04-29T18:18:57.334Z,101827.47
2019-04-29T18:21:43.138Z,101826.99
2019-04-29T18:24:29.427Z,101821.64
2019-04-29T18:27:04.053Z,101826.84
2019-04-29T18:29:29.904Z,101835.77
2019-04-29T18:31:55.685Z,101841.31
2019-04-29T18:34:21.489Z,101836.52
2019-04-29T18:36:47.653Z,101843.75
2019-04-29T18:39:20.203Z,101846.47
2019-04-29T18:41:44.861Z,101841.17
2019-04-29T18:44:18.925Z,101844.48
2019-04-29T18:46:45.900Z,101844.54
2019-04-29T18:49:09.885Z,101851.48
2019-04-29T18:51:35.669Z,101848.05
2019-04-29T18:54:01.377Z,101852.81
2019-04-29T18:56:27.194Z,101850.37
2019-04-29T18:58:53.084Z,101853.20
2019-04-29T19:01:19.718Z,101866.38
2019-04-29T19:04:10.243Z,101858.98
2019-04-29T19:06:33.199Z,101863.47
2019-04-29T19:09:02.840Z,101865.25
2019-04-29T19:11:32.629Z,101869.59
2019-04-29T19:13:57.332Z,101865.51
2019-04-29T19:16:23.697Z,101876.63
2019-04-29T19:18:52.088Z,101872.19
2019-04-29T19:21:18.109Z,101875.69
2019-04-29T19:23:45.774Z,101872.70
2019-04-29T19:26:11.781Z,101876.09
2019-04-29T19:28:38.184Z,101865.25
2019-04-29T19:31:09.463Z,101871.34
2019-04-29T19:33:35.715Z,101875.62
2019-04-29T19:35:59.122Z,101876.89
2019-04-29T19:38:25.413Z,101872.32
2019-04-29T19:40:51.351Z,101878.48
2019-04-29T19:43:18.854Z,101880.53
2019-04-29T19:45:44.702Z,101881.61
2019-04-29T19:48:11.756Z,101885.19
2019-04-29T19:50:37.946Z,101890.42
2019-04-29T19:53:04.951Z,101895.89
2019-04-29T19:55:33.313Z,101898.67
2019-04-29T19:57:58.781Z,101901.14
2019-04-29T20:00:29.492Z,101902.94
2019-04-29T20:02:53.491Z,101892.94
2019-04-29T20:05:31.385Z,101896.38
2019-04-29T20:07:52.196Z,101905.73
2019-04-29T20:10:19.036Z,101909.36
2019-04-29T20:12:52.757Z,101910.17
2019-04-29T20:15:13.009Z,101907.98
2019-04-29T20:18:04.221Z,101910.74
2019-04-29T20:20:38.689Z,101907.59
2019-04-29T20:23:02.725Z,101913.38
2019-04-29T20:25:31.040Z,101908.13
2019-04-29T20:28:05.577Z,101911.53
2019-04-29T20:30:26.069Z,101911.16
2019-04-29T20:32:51.852Z,101909.45
2019-04-29T20:35:18.698Z,101910.81
2019-04-29T20:37:47.490Z,101908.69
2019-04-29T20:40:12.267Z,101907.02
2019-04-29T20:42:40.386Z,101903.60
2019-04-29T20:45:05.705Z,101909.08
2019-04-29T20:47:37.795Z,101905.27
2019-04-29T20:49:59.199Z,101906.94
2019-04-29T20:52:58.940Z,101910.55
2019-04-29T20:55:20.158Z,101910.55
2019-04-29T20:57:47.852Z,101914.52
2019-04-29T21:00:14.077Z,101913.23
2019-04-29T21:02:39.821Z,101912.95
2019-04-29T21:05:09.641Z,101914.49
2019-04-29T21:07:34.287Z,101920.77
2019-04-29T21:10:03.878Z,101914.67
2019-04-29T21:13:15.067Z,101912.92
2019-04-29T21:15:52.001Z,101914.58
2019-04-29T21:18:14.511Z,101910.70
2019-04-29T21:20:40.801Z,101913.55
2019-04-29T21:23:06.304Z,101910.78
2019-04-29T21:25:31.800Z,101912.41
2019-04-29T21:28:02.214Z,101915.52
2019-04-29T21:30:35.065Z,101920.25
2019-04-29T21:32:55.813Z,101919.23
2019-04-29T21:35:31.660Z,101920.80
2019-04-29T21:38:17.909Z,101923.96
2019-04-29T21:40:49.550Z,101920.52
2019-04-29T21:43:19.592Z,101922.14
2019-04-29T21:45:48.346Z,101923.42
2019-04-29T21:48:12.245Z,101917.40
2019-04-29T21:50:38.136Z,101917.58
2019-04-29T21:53:05.099Z,101912.52
2019-04-29T21:55:31.203Z,101915.39
2019-04-29T21:57:58.796Z,101919.07
2019-04-29T22:00:25.763Z,101917.50
2019-04-29T22:02:51.421Z,101919.38
2019-04-29T22:05:18.450Z,101916.48
2019-04-29T22:07:47.395Z,101915.23
2019-04-29T22:10:12.148Z,101917.02
2019-04-29T22:12:37.761Z,101917.14
2019-04-29T22:15:03.326Z,101921.77
2019-04-29T22:17:32.957Z,101924.05
2019-04-29T22:19:57.391Z,101916.00
2019-04-29T22:22:23.471Z,101924.72
2019-04-29T22:24:51.204Z,101922.14
2019-04-29T22:27:16.341Z,101920.44
2019-04-29T22:29:41.740Z,101919.22
2019-04-29T22:32:14.351Z,101920.88
2019-04-29T22:34:35.451Z,101921.24
2019-04-29T22:37:01.327Z,101924.20
2019-04-29T22:39:29.978Z,101918.25
2019-04-29T22:42:23.552Z,101919.91
2019-04-29T22:44:52.635Z,101925.88
2019-04-29T22:47:17.335Z,101919.36
2019-04-29T22:49:43.851Z,101921.66
2019-04-29T22:52:09.341Z,101924.53
2019-04-29T22:54:35.327Z,101920.63
2019-04-29T22:57:02.112Z,101928.87
2019-04-29T22:59:28.194Z,101921.58
2019-04-29T23:01:55.563Z,101923.04
2019-04-29T23:04:20.867Z,101923.52
2019-04-29T23:06:48.149Z,101920.84
2019-04-29T23:09:13.684Z,101913.94
2019-04-29T23:11:40.652Z,101923.34
2019-04-29T23:14:09.918Z,101917.52
2019-04-29T23:16:35.670Z,101912.52
2019-04-29T23:19:01.550Z,101921.11
2019-04-29T23:21:47.123Z,101915.23
2019-04-29T23:24:29.738Z,101912.22
2019-04-29T23:26:55.207Z,101905.56
2019-04-29T23:29:20.754Z,101912.63
2019-04-29T23:31:46.246Z,101903.61
2019-04-29T23:34:11.738Z,101904.80
2019-04-29T23:36:37.204Z,101896.22
2019-04-29T23:39:02.681Z,101897.91
2019-04-29T23:41:33.051Z,101891.05
2019-04-29T23:43:59.990Z,101890.02
2019-04-29T23:46:23.026Z,101893.83
2019-04-29T23:48:48.416Z,101883.53
2019-04-29T23:51:15.354Z,101885.16
2019-04-29T23:53:40.929Z,101885.53
2019-04-29T23:56:09.626Z,101890.27
2019-04-29T23:58:47.043Z,101882.58
